Time;durP1;ratioP1;P1;durP2;ratioP2;P2;SDS_P1;SDS_P2;PMS_P1;PMS_P2;Temp;Humidity;BMP_temperature;BMP_pressure;BME280_temperature;BME280_humidity;BME280_pressure;Samples;Min_cycle;Max_cycle;Signal;HPM_P1;HPM_P2
2022/01/27 00:01:25;;;;;;;151.13;37.97;;;-2.40;99.90;;;;;;4956232;29;20082;-93
2022/01/27 00:04:05;;;;;;;175.80;41.03;;;-2.40;99.90;;;;;;4940790;29;20090;-92
2022/01/27 00:06:33;;;;;;;359.52;50.90;;;-2.40;99.90;;;;;;4940936;29;20031;-92
2022/01/27 00:09:08;;;;;;;393.88;51.63;;;-2.40;99.90;;;;;;4940713;29;20042;-91
2022/01/27 00:11:45;;;;;;;316.00;46.10;;;-2.40;99.90;;;;;;4940745;29;20042;-92
2022/01/27 00:14:13;;;;;;;414.73;51.28;;;-2.40;99.90;;;;;;4941440;29;20031;-92
2022/01/27 00:16:43;;;;;;;369.50;49.22;;;-2.40;99.90;;;;;;4940238;29;20039;-92
2022/01/27 00:19:10;;;;;;;282.23;44.45;;;-2.40;99.90;;;;;;4940637;29;20033;-92
2022/01/27 00:21:37;;;;;;;204.77;45.78;;;-2.40;99.90;;;;;;4956986;29;20039;-91
2022/01/27 00:24:04;;;;;;;156.93;42.10;;;-2.40;99.90;;;;;;4940509;29;20043;-92
2022/01/27 00:26:30;;;;;;;356.88;53.63;;;-2.40;99.90;;;;;;4956583;29;20042;-91
2022/01/27 00:28:56;;;;;;;246.77;44.90;;;-2.40;99.90;;;;;;4940747;29;20396;-91
2022/01/27 00:31:22;;;;;;;253.10;44.35;;;-2.40;99.90;;;;;;4940476;29;20367;-91
2022/01/27 00:33:49;;;;;;;165.55;40.85;;;-2.40;99.90;;;;;;4956352;29;20027;-91
2022/01/27 00:36:15;;;;;;;395.80;50.42;;;-2.40;99.90;;;;;;4940561;29;20028;-92
2022/01/27 00:38:41;;;;;;;163.18;43.97;;;-2.40;99.90;;;;;;4940960;29;20023;-92
2022/01/27 00:41:08;;;;;;;158.40;41.00;;;-2.30;99.90;;;;;;4957168;29;20028;-91
2022/01/27 00:43:34;;;;;;;483.65;59.53;;;-2.40;99.90;;;;;;4940494;29;20082;-92
2022/01/27 00:46:00;;;;;;;198.32;43.80;;;-2.30;99.90;;;;;;4940258;29;20039;-92
2022/01/27 00:48:25;;;;;;;193.60;41.13;;;-2.40;99.90;;;;;;4940288;29;20078;-92
2022/01/27 00:50:58;;;;;;;192.75;41.03;;;-2.40;99.90;;;;;;4940212;29;20125;-92
2022/01/27 00:55:53;;;;;;;151.00;37.67;;;-2.40;99.90;;;;;;4956431;28;20079;-92
2022/01/27 00:58:40;;;;;;;275.42;47.67;;;-2.40;99.90;;;;;;4940346;29;20034;-91
2022/01/27 01:01:17;;;;;;;246.82;40.55;;;-2.40;99.90;;;;;;4940184;29;20038;-92
2022/01/27 01:03:46;;;;;;;248.45;41.83;;;-2.40;99.90;;;;;;4939689;29;20035;-92
2022/01/27 01:06:35;;;;;;;153.98;38.25;;;-2.40;99.90;;;;;;4940305;29;20042;-92
2022/01/27 01:19:42;;;;;;;184.63;39.17;;;-2.40;99.90;;;;;;4955970;28;20162;-92
2022/01/27 01:31:12;;;;;;;153.32;35.67;;;-2.50;99.90;;;;;;4954719;28;20098;-92
2022/01/27 01:33:13;;;;;;;201.52;38.05;;;-2.50;99.90;;;;;;4942395;28;20043;-92
2022/01/27 01:35:49;;;;;;;166.10;35.17;;;-2.50;99.90;;;;;;4924274;29;20039;-92
2022/01/27 01:38:21;;;;;;;232.27;39.47;;;-2.60;99.90;;;;;;4939667;29;20433;-91
2022/01/27 01:40:50;;;;;;;232.57;37.95;;;-2.60;99.90;;;;;;4939182;29;20480;-91
2022/01/27 01:43:17;;;;;;;158.68;37.30;;;-2.60;99.90;;;;;;4938902;29;20027;-91
2022/01/27 01:45:43;;;;;;;175.02;38.80;;;-2.60;99.90;;;;;;4938765;29;20035;-91
2022/01/27 01:48:09;;;;;;;350.65;46.90;;;-2.60;99.90;;;;;;4938959;28;20039;-92
2022/01/27 01:50:35;;;;;;;202.65;35.88;;;-2.60;99.90;;;;;;4954426;28;20035;-92
2022/01/27 01:53:01;;;;;;;200.85;39.22;;;-2.70;99.90;;;;;;4938890;29;20035;-92
2022/01/27 01:55:30;;;;;;;260.25;42.75;;;-2.60;99.90;;;;;;4938724;29;20046;-92
2022/01/27 01:57:57;;;;;;;184.35;40.70;;;-2.60;99.90;;;;;;4939102;29;20046;-91
2022/01/27 02:00:23;;;;;;;528.38;58.20;;;-2.60;99.90;;;;;;4938965;29;20042;-93
2022/01/27 02:02:50;;;;;;;165.60;37.85;;;-2.60;99.90;;;;;;4955366;29;20078;-93
2022/01/27 02:05:16;;;;;;;200.10;39.28;;;-2.60;99.90;;;;;;4938811;29;20790;-91
2022/01/27 02:09:08;;;;;;;376.75;48.03;;;-2.60;99.90;;;;;;4938779;29;20070;-93
2022/01/27 02:19:24;;;;;;;538.50;53.30;;;-2.80;99.90;;;;;;4954455;29;20090;-91
2022/01/27 02:22:01;;;;;;;355.90;44.35;;;-2.80;99.90;;;;;;4938703;29;20031;-92
2022/01/27 02:24:30;;;;;;;238.45;37.15;;;-2.80;99.90;;;;;;4938588;29;20031;-92
2022/01/27 02:26:57;;;;;;;241.50;38.55;;;-2.80;99.90;;;;;;4938921;29;20480;-92
2022/01/27 02:29:23;;;;;;;452.15;46.78;;;-2.70;99.90;;;;;;4938400;29;20031;-92
2022/01/27 02:31:50;;;;;;;392.48;45.70;;;-2.70;99.90;;;;;;4938431;29;20039;-91
2022/01/27 02:34:19;;;;;;;149.57;34.92;;;-2.70;99.90;;;;;;4938509;29;20035;-91
2022/01/27 02:36:45;;;;;;;296.27;44.55;;;-2.70;99.90;;;;;;4938115;29;20038;-92
2022/01/27 02:39:12;;;;;;;549.38;55.75;;;-2.70;99.90;;;;;;4938389;29;20035;-93
2022/01/27 02:41:45;;;;;;;178.13;36.53;;;-2.70;99.90;;;;;;4956520;28;20815;-91
2022/01/27 02:44:45;;;;;;;130.35;33.47;;;-2.70;99.90;;;;;;4942679;28;20903;-91
2022/01/27 02:47:15;;;;;;;187.85;38.35;;;-2.70;99.90;;;;;;4942254;28;20035;-91
2022/01/27 02:49:44;;;;;;;381.17;50.03;;;-2.70;99.90;;;;;;4942130;29;20039;-92
2022/01/27 02:52:11;;;;;;;150.80;36.15;;;-2.80;99.90;;;;;;4942058;29;20043;-92
2022/01/27 02:54:37;;;;;;;528.25;57.15;;;-2.70;99.90;;;;;;4942624;29;20387;-91
2022/01/27 02:57:04;;;;;;;431.45;48.03;;;-2.70;99.90;;;;;;4942151;29;20055;-92
2022/01/27 02:59:31;;;;;;;393.58;42.25;;;-2.70;99.90;;;;;;4942123;29;20556;-92
2022/01/27 03:01:57;;;;;;;231.52;40.22;;;-2.80;99.90;;;;;;4942118;29;20031;-91
2022/01/27 03:04:24;;;;;;;384.25;45.30;;;-2.80;99.90;;;;;;4942015;29;20049;-92
2022/01/27 03:06:51;;;;;;;277.25;42.08;;;-2.80;99.90;;;;;;4958398;29;20061;-91
2022/01/27 03:09:16;;;;;;;145.90;36.13;;;-2.80;99.90;;;;;;4942209;29;20031;-91
2022/01/27 03:11:51;;;;;;;203.13;37.80;;;-2.70;99.90;;;;;;4942184;29;20476;-92
2022/01/27 03:14:22;;;;;;;131.73;32.72;;;-2.70;99.90;;;;;;4942428;29;20157;-92
2022/01/27 03:16:59;;;;;;;198.15;36.83;;;-2.70;99.90;;;;;;4941893;29;20416;-92
2022/01/27 03:19:27;;;;;;;182.18;34.95;;;-2.70;99.90;;;;;;4941693;29;20126;-92
2022/01/27 03:21:54;;;;;;;152.13;33.42;;;-2.70;99.90;;;;;;4942028;29;20019;-93
2022/01/27 03:24:21;;;;;;;219.63;35.25;;;-2.70;99.90;;;;;;4941697;29;20058;-91
2022/01/27 03:26:52;;;;;;;;;;;-2.70;99.90;;;;;;4958465;29;20031;-92
2022/01/27 03:29:21;;;;;;;186.18;32.40;;;-2.70;99.90;;;;;;4957631;28;19914;-91
2022/01/27 03:31:48;;;;;;;264.30;38.75;;;-2.60;99.90;;;;;;4941684;29;20098;-92
2022/01/27 03:34:14;;;;;;;244.93;39.83;;;-2.70;99.90;;;;;;4941411;29;20078;-92
2022/01/27 03:36:41;;;;;;;159.13;31.40;;;-2.70;99.90;;;;;;4941225;29;20078;-92
2022/01/27 03:39:08;;;;;;;230.65;34.80;;;-2.70;99.90;;;;;;4941775;29;20118;-91
2022/01/27 03:41:36;;;;;;;130.35;31.92;;;-2.70;99.90;;;;;;4941551;29;20027;-92
2022/01/27 03:44:03;;;;;;;176.55;34.92;;;-2.80;99.90;;;;;;4941642;29;20058;-90
2022/01/27 03:46:29;;;;;;;128.27;33.53;;;-2.80;99.90;;;;;;4941365;29;20043;-92
2022/01/27 03:48:58;;;;;;;187.88;33.58;;;-2.70;99.90;;;;;;4941467;29;20046;-91
2022/01/27 03:51:24;;;;;;;121.90;29.77;;;-2.70;99.90;;;;;;4940924;29;20064;-92
2022/01/27 03:53:50;;;;;;;157.65;33.30;;;-2.70;99.90;;;;;;4940100;29;20031;-91
2022/01/27 03:56:16;;;;;;;144.93;30.23;;;-2.70;99.90;;;;;;4940642;29;20126;-92
2022/01/27 03:58:42;;;;;;;326.85;39.42;;;-2.80;99.90;;;;;;4941437;29;20179;-91
2022/01/27 04:01:08;;;;;;;357.67;42.97;;;-2.80;99.90;;;;;;4941268;29;20098;-92
2022/01/27 04:03:37;;;;;;;169.30;32.28;;;-2.80;99.90;;;;;;4941120;29;20506;-92
2022/01/27 04:06:06;;;;;;;168.43;32.55;;;-2.80;99.90;;;;;;4940972;29;20035;-92
2022/01/27 04:08:36;;;;;;;241.60;35.70;;;-2.80;99.90;;;;;;4956674;29;20074;-91
2022/01/27 04:11:06;;;;;;;238.32;40.75;;;-2.80;99.90;;;;;;4940724;29;20047;-92
2022/01/27 04:13:33;;;;;;;188.55;35.65;;;-2.90;99.90;;;;;;4940556;29;20034;-92
2022/01/27 04:16:05;;;;;;;305.83;41.25;;;-2.80;99.90;;;;;;4940512;29;20032;-92
2022/01/27 04:18:32;;;;;;;147.23;33.67;;;-2.90;99.90;;;;;;4956767;29;20039;-91
2022/01/27 04:20:58;;;;;;;198.70;35.70;;;-2.90;99.90;;;;;;4940670;29;20039;-91
2022/01/27 04:23:29;;;;;;;172.63;33.83;;;-2.90;99.90;;;;;;4940167;29;20057;-91
2022/01/27 04:25:55;;;;;;;196.43;36.55;;;-2.90;99.90;;;;;;4940858;29;20031;-91
2022/01/27 04:28:31;;;;;;;617.92;58.28;;;-2.80;99.90;;;;;;4940307;29;20055;-92
2022/01/27 04:30:59;;;;;;;121.68;33.33;;;-2.90;99.90;;;;;;4939835;29;20054;-91
2022/01/27 04:33:28;;;;;;;242.68;36.78;;;-3.00;99.90;;;;;;4939871;29;20031;-92
2022/01/27 04:35:57;;;;;;;221.90;35.65;;;-2.90;99.90;;;;;;4939985;29;20035;-92
2022/01/27 04:38:44;;;;;;;448.67;45.22;;;-2.90;99.90;;;;;;4940407;29;20031;-92
2022/01/27 04:41:57;;;;;;;188.45;35.78;;;-2.90;99.90;;;;;;4955100;29;20042;-91
2022/01/27 04:44:56;;;;;;;264.85;35.90;;;-2.90;99.90;;;;;;4949181;29;20552;-91
2022/01/27 04:47:32;;;;;;;306.38;39.58;;;-2.90;99.90;;;;;;4940666;29;20126;-92
2022/01/27 04:49:58;;;;;;;214.90;36.17;;;-2.90;99.90;;;;;;4940002;29;20042;-91
2022/01/27 04:52:25;;;;;;;284.58;36.47;;;-2.80;99.90;;;;;;4939961;29;20035;-91
2022/01/27 04:54:59;;;;;;;442.55;46.05;;;-2.80;99.90;;;;;;4939882;29;20062;-92
2022/01/27 04:57:27;;;;;;;197.70;37.83;;;-2.90;99.90;;;;;;4939705;29;20038;-91
2022/01/27 04:59:53;;;;;;;604.90;58.10;;;-2.80;99.90;;;;;;4940222;29;20038;-92
2022/01/27 05:02:36;;;;;;;278.05;38.20;;;-2.80;99.90;;;;;;4956224;28;20043;-91
2022/01/27 05:05:02;;;;;;;152.68;34.60;;;-2.90;99.90;;;;;;4939914;29;20126;-92
2022/01/27 05:07:28;;;;;;;250.60;37.83;;;-2.90;99.90;;;;;;4956304;28;20031;-93
2022/01/27 05:09:59;;;;;;;520.60;54.58;;;-2.90;99.90;;;;;;4939842;29;20042;-93
2022/01/27 05:12:36;;;;;;;200.55;36.65;;;-2.90;99.90;;;;;;4940355;29;20034;-92
2022/01/27 05:15:06;;;;;;;485.48;54.67;;;-3.00;99.90;;;;;;4940107;29;20047;-93
2022/01/27 05:17:31;;;;;;;584.13;68.97;;;-2.90;99.90;;;;;;4940335;29;20058;-92
2022/01/27 05:20:00;;;;;;;250.32;50.38;;;-2.90;99.90;;;;;;4955985;28;20039;-92
2022/01/27 05:22:26;;;;;;;332.85;44.53;;;-2.90;99.90;;;;;;4940269;29;20027;-92
2022/01/27 05:24:52;;;;;;;409.77;57.17;;;-3.00;99.90;;;;;;4939589;29;20097;-93
2022/01/27 05:27:17;;;;;;;340.20;44.47;;;-3.00;99.90;;;;;;4955977;28;20491;-92
2022/01/27 05:29:43;;;;;;;163.05;35.67;;;-3.00;99.90;;;;;;4939452;29;20475;-91
2022/01/27 05:32:09;;;;;;;233.20;41.90;;;-2.90;99.90;;;;;;4939566;29;20475;-91
2022/01/27 05:34:38;;;;;;;221.73;40.97;;;-2.90;99.90;;;;;;4955018;28;20032;-92
2022/01/27 05:37:04;;;;;;;333.00;43.65;;;-2.90;99.90;;;;;;4939519;29;20035;-91
2022/01/27 05:39:29;;;;;;;223.73;40.33;;;-2.90;99.90;;;;;;4939920;29;20028;-92
2022/01/27 05:41:55;;;;;;;200.80;36.97;;;-2.90;99.90;;;;;;4939766;29;20031;-91
2022/01/27 05:44:21;;;;;;;167.80;38.47;;;-3.00;99.90;;;;;;4939383;29;20670;-91
2022/01/27 05:50:34;;;;;;;136.43;37.17;;;-2.90;99.90;;;;;;4937876;29;20091;-93
2022/01/27 05:53:04;;;;;;;191.40;40.58;;;-3.00;99.90;;;;;;4920222;29;20074;-91
2022/01/27 05:55:33;;;;;;;168.07;37.10;;;-3.00;99.90;;;;;;4921302;29;20067;-92
2022/01/27 05:58:05;;;;;;;216.90;37.78;;;-3.00;99.90;;;;;;4922898;29;20548;-91
2022/01/27 06:00:30;;;;;;;186.88;36.42;;;-3.00;99.90;;;;;;4920660;29;20040;-92
2022/01/27 06:02:56;;;;;;;223.00;39.72;;;-3.00;99.90;;;;;;4920283;29;20083;-93
2022/01/27 06:05:26;;;;;;;148.60;36.83;;;-3.00;99.90;;;;;;4920367;29;20040;-91
2022/01/27 06:08:16;;;;;;;348.00;44.97;;;-3.00;99.90;;;;;;4920436;29;20452;-91
2022/01/27 06:10:42;;;;;;;149.97;35.83;;;-3.00;99.90;;;;;;4938484;29;20035;-91
2022/01/27 06:13:39;;;;;;;147.25;37.03;;;-3.00;99.90;;;;;;4939343;29;20054;-92
2022/01/27 06:16:09;;;;;;;184.68;37.78;;;-2.90;99.90;;;;;;4954623;28;20388;-92
2022/01/27 06:18:36;;;;;;;139.40;34.72;;;-2.90;99.90;;;;;;4939391;29;20031;-92
2022/01/27 06:21:13;;;;;;;167.77;36.80;;;-3.00;99.90;;;;;;4939563;29;20038;-92
2022/01/27 06:23:38;;;;;;;136.27;33.47;;;-3.00;99.90;;;;;;4939476;29;20432;-92
2022/01/27 06:26:05;;;;;;;168.90;38.03;;;-3.00;99.90;;;;;;4939360;29;20043;-92
2022/01/27 06:28:31;;;;;;;166.45;38.00;;;-3.00;99.90;;;;;;4938919;29;20190;-93
2022/01/27 06:30:57;;;;;;;155.13;35.72;;;-3.00;99.90;;;;;;4939015;29;20495;-92
2022/01/27 06:33:22;;;;;;;144.38;38.25;;;-2.90;99.90;;;;;;4938845;29;20028;-91
2022/01/27 06:35:50;;;;;;;147.15;35.88;;;-2.90;99.90;;;;;;4938694;29;20551;-92
2022/01/27 06:38:17;;;;;;;134.90;35.55;;;-2.90;99.90;;;;;;4938900;29;20031;-91
2022/01/27 06:40:49;;;;;;;169.02;39.67;;;-2.90;99.90;;;;;;4938625;29;20098;-91
2022/01/27 06:43:15;;;;;;;155.48;37.50;;;-2.90;99.90;;;;;;4938169;29;20129;-92
2022/01/27 06:45:41;;;;;;;151.27;37.30;;;-2.90;99.90;;;;;;4938262;29;20036;-92
2022/01/27 06:48:07;;;;;;;147.02;37.05;;;-2.90;99.90;;;;;;4954183;29;20038;-92
2022/01/27 06:50:38;;;;;;;138.73;38.63;;;-2.90;99.90;;;;;;4938170;29;20035;-93
2022/01/27 06:53:08;;;;;;;155.90;37.50;;;-2.90;99.90;;;;;;4938384;29;20035;-93
2022/01/27 06:55:37;;;;;;;153.85;37.08;;;-2.90;99.90;;;;;;4938902;29;20038;-92
2022/01/27 06:58:03;;;;;;;157.05;36.90;;;-2.90;99.90;;;;;;4938357;29;20031;-92
2022/01/27 07:00:29;;;;;;;148.38;34.70;;;-2.90;99.90;;;;;;4939800;29;20050;-91
2022/01/27 07:02:57;;;;;;;144.90;37.10;;;-2.90;99.90;;;;;;4956014;28;20043;-92
2022/01/27 07:05:23;;;;;;;169.68;40.13;;;-2.90;99.90;;;;;;4930542;29;20065;-92
2022/01/27 07:07:49;;;;;;;149.65;38.55;;;-2.90;99.90;;;;;;4938646;29;20074;-91
2022/01/27 07:10:15;;;;;;;165.02;37.47;;;-2.90;99.90;;;;;;4955057;29;20042;-92
2022/01/27 07:12:41;;;;;;;148.18;39.05;;;-2.90;99.90;;;;;;4938260;29;20031;-92
2022/01/27 07:15:13;;;;;;;163.93;41.05;;;-2.90;99.90;;;;;;4937849;29;20118;-92
2022/01/27 07:17:39;;;;;;;163.18;36.13;;;-2.90;99.90;;;;;;4938483;29;20691;-92
2022/01/27 07:20:06;;;;;;;157.30;37.45;;;-2.80;99.90;;;;;;4938129;29;20031;-92
2022/01/27 07:22:33;;;;;;;166.75;36.63;;;-2.90;99.90;;;;;;4938334;29;20106;-92
2022/01/27 07:24:59;;;;;;;152.38;37.88;;;-2.90;99.90;;;;;;4955840;28;20046;-91
2022/01/27 07:27:25;;;;;;;134.10;33.97;;;-2.80;99.90;;;;;;4939349;29;20039;-91
2022/01/27 07:29:54;;;;;;;139.38;36.15;;;-2.80;99.90;;;;;;4941282;29;20046;-91
2022/01/27 07:32:19;;;;;;;139.85;36.83;;;-2.80;99.90;;;;;;4941464;29;20035;-93
2022/01/27 07:34:45;;;;;;;155.75;37.45;;;-2.80;99.90;;;;;;4941876;29;20069;-90
2022/01/27 07:37:11;;;;;;;135.13;34.55;;;-2.80;99.90;;;;;;4942210;29;20034;-91
2022/01/27 07:39:37;;;;;;;149.65;36.67;;;-2.80;99.90;;;;;;4941806;29;20123;-91
2022/01/27 07:42:03;;;;;;;145.50;34.30;;;-2.70;99.90;;;;;;4941146;29;20027;-92
2022/01/27 07:44:33;;;;;;;;;;;-2.70;99.90;;;;;;4942605;29;20035;-91
2022/01/27 07:46:59;;;;;;;154.85;37.38;;;-2.70;99.90;;;;;;4957445;29;19921;-91
2022/01/27 07:49:25;;;;;;;151.98;36.90;;;-2.70;99.90;;;;;;4941249;29;20046;-92
2022/01/27 07:51:51;;;;;;;139.23;34.30;;;-2.70;99.90;;;;;;4941470;29;20122;-91
2022/01/27 07:54:33;;;;;;;139.82;34.30;;;-2.70;99.90;;;;;;4957564;29;20154;-90
2022/01/27 07:56:58;;;;;;;216.50;39.47;;;-2.70;99.90;;;;;;4941408;29;20031;-92
2022/01/27 07:59:24;;;;;;;146.95;33.85;;;-2.70;99.90;;;;;;4941092;29;20538;-92
2022/01/27 08:01:51;;;;;;;176.90;38.70;;;-2.70;99.90;;;;;;4941551;29;20507;-92
2022/01/27 08:04:17;;;;;;;146.48;38.38;;;-2.60;99.90;;;;;;4941292;29;20058;-91
2022/01/27 08:06:43;;;;;;;190.75;37.38;;;-2.60;99.90;;;;;;4941103;29;20043;-91
2022/01/27 08:09:08;;;;;;;125.40;32.55;;;-2.50;99.90;;;;;;4941068;29;20034;-91
2022/01/27 08:11:34;;;;;;;185.18;34.10;;;-2.60;99.90;;;;;;4940874;29;20451;-93
2022/01/27 08:14:00;;;;;;;161.38;31.30;;;-2.60;99.90;;;;;;4957000;29;20050;-91
2022/01/27 08:16:28;;;;;;;222.30;34.38;;;-2.60;99.90;;;;;;4941121;29;20488;-92
2022/01/27 08:18:53;;;;;;;104.57;28.83;;;-2.70;99.90;;;;;;4940869;29;20028;-91
2022/01/27 08:21:19;;;;;;;175.77;34.55;;;-2.70;99.90;;;;;;4956772;29;20058;-91
2022/01/27 08:23:46;;;;;;;131.20;31.33;;;-2.60;99.90;;;;;;4940639;29;20121;-92
2022/01/27 08:26:25;;;;;;;217.40;32.83;;;-2.60;99.90;;;;;;4940824;29;20042;-92
2022/01/27 08:28:58;;;;;;;229.63;32.22;;;-2.60;99.90;;;;;;4941007;29;20098;-91
2022/01/27 08:31:32;;;;;;;214.98;29.55;;;-2.60;99.90;;;;;;4940764;29;20125;-91
2022/01/27 08:34:03;;;;;;;146.50;26.75;;;-2.60;99.90;;;;;;4940737;29;20118;-91
2022/01/27 08:36:28;;;;;;;205.60;29.30;;;-2.70;99.90;;;;;;4956851;29;20039;-90
2022/01/27 08:38:54;;;;;;;239.85;33.17;;;-2.70;99.90;;;;;;4940475;29;20043;-92
2022/01/27 08:41:20;;;;;;;116.38;24.92;;;-2.70;99.90;;;;;;4956747;29;20035;-91
2022/01/27 08:43:46;;;;;;;102.93;22.50;;;-2.60;99.90;;;;;;4940801;29;20082;-92
2022/01/27 08:46:12;;;;;;;199.65;26.45;;;-2.70;99.90;;;;;;4941000;29;20050;-91
2022/01/27 08:48:41;;;;;;;121.43;22.65;;;-2.60;99.90;;;;;;4941086;29;20134;-91
2022/01/27 08:51:11;;;;;;;176.98;25.02;;;-2.60;99.90;;;;;;4940033;29;20094;-91
2022/01/27 08:53:41;;;;;;;239.70;30.45;;;-2.60;99.90;;;;;;4957522;28;20035;-91
2022/01/27 08:56:09;;;;;;;119.85;23.58;;;-2.60;99.90;;;;;;4940372;29;20055;-91
2022/01/27 08:58:35;;;;;;;92.70;23.30;;;-2.60;99.90;;;;;;4939614;29;20433;-92
2022/01/27 09:01:03;;;;;;;255.77;26.58;;;-2.60;99.90;;;;;;4956174;29;20077;-91
2022/01/27 09:03:30;;;;;;;113.68;24.10;;;-2.60;99.90;;;;;;4939722;29;20035;-92
2022/01/27 09:05:56;;;;;;;122.20;25.83;;;-2.60;99.90;;;;;;4957510;28;20031;-91
2022/01/27 09:08:21;;;;;;;266.23;30.38;;;-2.50;99.90;;;;;;4940045;29;20538;-92
2022/01/27 09:10:48;;;;;;;303.38;29.25;;;-2.60;99.90;;;;;;4939775;29;20038;-92
2022/01/27 09:13:15;;;;;;;261.63;31.10;;;-2.60;99.90;;;;;;4939902;29;20020;-91
2022/01/27 09:15:43;;;;;;;457.02;39.17;;;-2.50;99.90;;;;;;4939948;29;20035;-92
2022/01/27 09:18:09;;;;;;;512.88;46.08;;;-2.60;99.90;;;;;;4939895;29;20066;-90
2022/01/27 09:20:35;;;;;;;273.25;28.88;;;-2.60;99.90;;;;;;4939478;29;20039;-92
2022/01/27 09:23:02;;;;;;;164.52;24.85;;;-2.60;99.90;;;;;;4939613;29;20649;-91
2022/01/27 09:25:42;;;;;;;216.50;28.10;;;-2.60;99.90;;;;;;4939410;29;20479;-91
2022/01/27 09:28:07;;;;;;;136.13;23.05;;;-2.50;99.90;;;;;;4940014;29;20133;-91
2022/01/27 09:30:33;;;;;;;193.57;26.77;;;-2.60;99.90;;;;;;4955016;29;20130;-92
2022/01/27 09:32:59;;;;;;;158.70;24.75;;;-2.50;99.90;;;;;;4939733;29;20069;-92
2022/01/27 09:35:27;;;;;;;252.65;29.50;;;-2.50;99.90;;;;;;4955568;29;20106;-92
2022/01/27 09:37:53;;;;;;;135.18;22.58;;;-2.50;99.90;;;;;;4955740;29;20027;-91
2022/01/27 09:40:19;;;;;;;237.93;26.88;;;-2.60;99.90;;;;;;4939446;29;20133;-91
2022/01/27 09:42:52;;;;;;;209.90;30.10;;;-2.60;99.90;;;;;;4939583;29;20565;-92
2022/01/27 09:45:28;;;;;;;193.95;25.52;;;-2.50;99.90;;;;;;4955949;29;20035;-91
2022/01/27 09:47:56;;;;;;;227.73;34.42;;;-2.60;99.90;;;;;;4955819;29;20043;-91
2022/01/27 09:53:01;;;;;;;274.92;39.55;;;-2.60;99.90;;;;;;4955584;29;20030;-91
2022/01/27 09:55:27;;;;;;;260.65;28.95;;;-2.60;99.90;;;;;;4939310;29;20031;-92
2022/01/27 09:57:58;;;;;;;163.82;23.52;;;-2.60;99.90;;;;;;4939364;29;20071;-91
2022/01/27 10:00:24;;;;;;;;;;;-2.50;99.90;;;;;;4955492;29;20114;-90
2022/01/27 10:03:04;;;;;;;279.45;29.60;;;-2.50;99.90;;;;;;4956082;29;20073;-92
2022/01/27 10:05:30;;;;;;;321.23;31.08;;;-2.60;99.90;;;;;;4955718;29;20023;-91
2022/01/27 10:08:24;;;;;;;466.23;47.53;;;-2.60;99.90;;;;;;4955155;29;20042;-92
2022/01/27 10:10:53;;;;;;;244.88;31.77;;;-2.60;99.90;;;;;;4956470;29;20051;-91
2022/01/27 10:13:31;;;;;;;601.20;51.97;;;-2.60;99.90;;;;;;4942535;29;20062;-91
2022/01/27 10:15:58;;;;;;;395.40;38.13;;;-2.60;99.90;;;;;;4940203;29;20427;-91
2022/01/27 10:18:34;;;;;;;405.10;35.80;;;-2.60;99.90;;;;;;4941170;29;20027;-91
2022/01/27 10:21:09;;;;;;;571.55;46.28;;;-2.60;99.90;;;;;;4941944;29;20039;-91
2022/01/27 10:23:38;;;;;;;380.98;36.10;;;-2.60;99.90;;;;;;4940927;29;20043;-91
2022/01/27 10:26:15;;;;;;;315.55;35.47;;;-2.60;99.90;;;;;;4940016;29;20039;-91
2022/01/27 10:28:51;;;;;;;211.45;24.17;;;-2.60;99.90;;;;;;4940169;29;20027;-90
2022/01/27 10:31:24;;;;;;;518.72;45.88;;;-2.50;99.90;;;;;;4955451;29;20031;-91
2022/01/27 10:34:02;;;;;;;;;;;-2.50;99.90;;;;;;4941989;29;20031;-91
2022/01/27 10:36:49;;;;;;;290.67;34.25;;;-2.60;99.90;;;;;;4954769;29;19914;-90
2022/01/27 10:39:24;;;;;;;363.83;36.75;;;-2.60;99.90;;;;;;4954942;29;20090;-91
2022/01/27 10:41:56;;;;;;;330.17;30.27;;;-2.60;99.90;;;;;;4957026;29;20464;-90
2022/01/27 10:44:48;;;;;;;503.27;43.85;;;-2.50;99.90;;;;;;4957150;29;20514;-92
2022/01/27 10:47:19;;;;;;;273.98;31.13;;;-2.50;99.90;;;;;;4940545;29;20415;-91
2022/01/27 10:49:57;;;;;;;332.90;31.98;;;-2.50;99.90;;;;;;4940811;29;20075;-92
2022/01/27 10:55:22;;;;;;;128.57;22.30;;;-2.40;99.90;;;;;;4954965;29;20035;-90
2022/01/27 10:57:51;;;;;;;121.38;22.83;;;-2.30;99.90;;;;;;4955952;29;20030;-91
2022/01/27 11:00:19;;;;;;;141.30;23.17;;;-2.30;99.90;;;;;;4955120;29;20038;-92
2022/01/27 11:02:49;;;;;;;268.38;30.83;;;-2.30;99.90;;;;;;4941192;29;20031;-92
2022/01/27 11:05:26;;;;;;;262.58;29.55;;;-2.20;99.90;;;;;;4942654;29;20055;-91
2022/01/27 11:07:53;;;;;;;300.48;33.83;;;-2.30;99.90;;;;;;4942550;29;20039;-91
2022/01/27 11:10:22;;;;;;;86.15;24.83;;;-2.20;99.90;;;;;;4942424;29;20049;-91
2022/01/27 11:12:52;;;;;;;268.10;29.60;;;-2.20;99.90;;;;;;4942653;29;20034;-91
2022/01/27 11:15:20;;;;;;;73.57;22.70;;;-2.20;99.90;;;;;;4941916;29;20031;-91
2022/01/27 11:17:48;;;;;;;148.52;26.00;;;-2.20;99.90;;;;;;4942161;29;20035;-91
2022/01/27 11:20:38;;;;;;;99.25;22.88;;;-2.20;99.90;;;;;;4944596;29;20031;-91
2022/01/27 11:26:13;;;;;;;180.43;27.75;;;-2.20;99.90;;;;;;4938280;29;20035;-91
2022/01/27 11:28:48;;;;;;;167.27;27.50;;;-2.20;99.90;;;;;;4906270;29;20032;-91
2022/01/27 11:31:52;;;;;;;137.18;25.67;;;-2.30;99.90;;;;;;4941841;29;20104;-91
2022/01/27 11:34:18;;;;;;;186.77;32.63;;;-2.30;99.90;;;;;;4958224;28;20062;-90
2022/01/27 11:37:02;;;;;;;109.35;27.90;;;-2.40;99.90;;;;;;4942074;29;20034;-91
2022/01/27 11:39:51;;;;;;;162.82;31.45;;;-2.30;99.90;;;;;;4941527;29;20039;-91
2022/01/27 11:42:21;;;;;;;;;;;-2.30;99.90;;;;;;4958558;29;20028;-91
2022/01/27 11:44:48;;;;;;;108.32;25.52;;;-2.30;99.90;;;;;;4957981;29;20005;-91
2022/01/27 11:47:18;;;;;;;196.90;32.35;;;-2.30;99.90;;;;;;4941717;29;20082;-90
2022/01/27 11:52:35;;;;;;;135.70;32.83;;;-2.30;99.90;;;;;;4957356;29;20070;-90
2022/01/27 11:55:36;;;;;;;146.57;35.45;;;-2.30;99.90;;;;;;4941545;29;20038;-91
2022/01/27 11:58:18;;;;;;;130.57;35.67;;;-2.30;99.90;;;;;;4895003;28;20098;-90
2022/01/27 12:01:06;;;;;;;184.38;37.70;;;-2.30;99.90;;;;;;4940873;29;20061;-91
2022/01/27 12:03:33;;;;;;;192.80;42.88;;;-2.30;99.90;;;;;;4952241;29;20094;-91
2022/01/27 12:06:20;;;;;;;173.10;40.65;;;-2.30;99.90;;;;;;4938532;29;20044;-92
2022/01/27 12:08:47;;;;;;;173.98;39.38;;;-2.40;99.90;;;;;;4937818;29;20032;-90
2022/01/27 12:11:47;;;;;;;191.32;41.25;;;-2.30;99.90;;;;;;4937958;29;20031;-91
2022/01/27 12:14:23;;;;;;;181.40;43.30;;;-2.40;99.90;;;;;;4937072;29;20067;-91
2022/01/27 12:17:08;;;;;;;167.32;41.28;;;-2.30;99.90;;;;;;4938795;29;20489;-91
2022/01/27 12:19:55;;;;;;;175.93;42.28;;;-2.30;99.90;;;;;;4953859;29;20035;-91
2022/01/27 12:22:25;;;;;;;157.65;40.95;;;-2.20;99.90;;;;;;4937904;29;20043;-91
2022/01/27 12:24:51;;;;;;;164.52;43.50;;;-2.20;99.90;;;;;;4953773;28;20034;-90
2022/01/27 12:27:18;;;;;;;170.60;45.85;;;-2.20;99.90;;;;;;4938242;28;20028;-91
2022/01/27 12:29:49;;;;;;;199.15;44.63;;;-2.20;99.90;;;;;;4938247;28;20043;-90
2022/01/27 12:32:26;;;;;;;177.73;44.63;;;-2.20;99.90;;;;;;4937381;29;20058;-92
2022/01/27 12:34:58;;;;;;;198.23;47.05;;;-2.20;99.90;;;;;;4937837;29;20028;-91
2022/01/27 12:37:38;;;;;;;171.52;45.55;;;-2.20;99.90;;;;;;4938029;29;20508;-91
2022/01/27 12:40:15;;;;;;;178.40;46.17;;;-2.20;99.90;;;;;;4937957;29;20032;-91
2022/01/27 12:43:01;;;;;;;194.68;47.05;;;-2.10;99.90;;;;;;4937614;29;20023;-90
2022/01/27 12:45:30;;;;;;;182.50;45.38;;;-2.10;99.90;;;;;;4937742;29;20031;-91
2022/01/27 12:48:03;;;;;;;185.02;48.38;;;-2.10;99.90;;;;;;4953896;29;20669;-91
2022/01/27 12:50:29;;;;;;;224.35;45.97;;;-2.10;99.90;;;;;;4937448;29;20134;-91
2022/01/27 12:53:03;;;;;;;210.85;45.30;;;-2.00;99.90;;;;;;4937726;29;20184;-91
2022/01/27 12:55:43;;;;;;;289.90;48.75;;;-2.00;99.90;;;;;;4938171;29;20115;-92
2022/01/27 12:58:17;;;;;;;196.82;44.38;;;-2.10;99.90;;;;;;4937336;29;20047;-90
2022/01/27 13:00:49;;;;;;;167.95;46.10;;;-2.10;99.90;;;;;;4953258;29;20308;-91
2022/01/27 13:03:21;;;;;;;181.77;44.28;;;-2.10;99.90;;;;;;4937407;29;20035;-91
2022/01/27 13:05:50;;;;;;;181.73;43.45;;;-2.00;99.90;;;;;;4937414;29;20027;-90
2022/01/27 13:08:18;;;;;;;213.55;47.28;;;-2.00;99.90;;;;;;4953584;29;20199;-91
2022/01/27 13:10:56;;;;;;;192.70;44.53;;;-2.10;99.90;;;;;;4938279;29;20063;-89
2022/01/27 13:13:33;;;;;;;187.88;46.90;;;-2.10;99.90;;;;;;4937433;29;20043;-92
2022/01/27 13:16:02;;;;;;;262.33;46.90;;;-2.00;99.90;;;;;;4937858;29;20487;-91
2022/01/27 13:21:04;;;;;;;211.43;47.20;;;-2.00;99.90;;;;;;4938701;29;20046;-90
2022/01/27 13:23:38;;;;;;;171.77;45.17;;;-2.00;99.90;;;;;;4953956;28;20047;-91